sensor_id;sensor_type;location;lat;lon;timestamp;P1;durP1;ratioP1;P2;durP2;ratioP2
8887;SDS011;4480;52.370;9.748;2023-08-12T00:00:01;8.57;;;4.60;;
8887;SDS011;4480;52.370;9.748;2023-08-12T00:02:36;7.63;;;4.47;;
8887;SDS011;4480;52.370;9.748;2023-08-12T00:05:02;7.80;;;4.50;;
8887;SDS011;4480;52.370;9.748;2023-08-12T00:07:30;7.17;;;4.33;;
8887;SDS011;4480;52.370;9.748;2023-08-12T00:09:59;6.00;;;4.40;;
8887;SDS011;4480;52.370;9.748;2023-08-12T00:12:26;5.90;;;4.23;;
8887;SDS011;4480;52.370;9.748;2023-08-12T00:14:52;6.07;;;4.70;;
8887;SDS011;4480;52.370;9.748;2023-08-12T00:17:19;8.90;;;4.53;;
8887;SDS011;4480;52.370;9.748;2023-08-12T00:19:46;5.03;;;4.43;;
8887;SDS011;4480;52.370;9.748;2023-08-12T00:22:13;7.90;;;4.27;;
8887;SDS011;4480;52.370;9.748;2023-08-12T00:24:39;8.47;;;4.80;;
8887;SDS011;4480;52.370;9.748;2023-08-12T00:27:07;10.30;;;4.93;;
8887;SDS011;4480;52.370;9.748;2023-08-12T00:29:34;7.30;;;5.30;;
8887;SDS011;4480;52.370;9.748;2023-08-12T00:32:01;4.93;;;4.30;;
8887;SDS011;4480;52.370;9.748;2023-08-12T00:34:29;11.50;;;4.43;;
8887;SDS011;4480;52.370;9.748;2023-08-12T00:36:55;5.67;;;4.10;;
8887;SDS011;4480;52.370;9.748;2023-08-12T00:39:22;7.53;;;4.00;;
8887;SDS011;4480;52.370;9.748;2023-08-12T00:41:49;7.00;;;4.50;;
8887;SDS011;4480;52.370;9.748;2023-08-12T00:44:17;9.03;;;5.07;;
8887;SDS011;4480;52.370;9.748;2023-08-12T00:46:44;6.47;;;4.67;;
8887;SDS011;4480;52.370;9.748;2023-08-12T00:49:11;8.60;;;5.13;;
8887;SDS011;4480;52.370;9.748;2023-08-12T00:51:38;10.53;;;4.67;;
8887;SDS011;4480;52.370;9.748;2023-08-12T00:54:08;5.53;;;4.87;;
8887;SDS011;4480;52.370;9.748;2023-08-12T00:56:39;8.70;;;5.03;;
8887;SDS011;4480;52.370;9.748;2023-08-12T00:59:07;12.70;;;4.60;;
8887;SDS011;4480;52.370;9.748;2023-08-12T01:01:37;8.50;;;4.60;;
8887;SDS011;4480;52.370;9.748;2023-08-12T01:04:06;8.80;;;4.63;;
8887;SDS011;4480;52.370;9.748;2023-08-12T01:06:33;6.03;;;4.63;;
8887;SDS011;4480;52.370;9.748;2023-08-12T01:09:00;5.30;;;4.73;;
8887;SDS011;4480;52.370;9.748;2023-08-12T01:11:32;6.30;;;4.23;;
8887;SDS011;4480;52.370;9.748;2023-08-12T01:14:04;8.10;;;4.27;;
8887;SDS011;4480;52.370;9.748;2023-08-12T01:16:40;5.00;;;4.47;;
8887;SDS011;4480;52.370;9.748;2023-08-12T01:19:16;6.47;;;5.03;;
8887;SDS011;4480;52.370;9.748;2023-08-12T01:21:53;8.50;;;4.60;;
8887;SDS011;4480;52.370;9.748;2023-08-12T01:24:24;11.40;;;5.20;;
8887;SDS011;4480;52.370;9.748;2023-08-12T01:26:51;6.73;;;4.70;;
8887;SDS011;4480;52.370;9.748;2023-08-12T01:29:17;5.13;;;4.50;;
8887;SDS011;4480;52.370;9.748;2023-08-12T01:31:45;6.63;;;5.00;;
8887;SDS011;4480;52.370;9.748;2023-08-12T01:34:26;8.13;;;5.10;;
8887;SDS011;4480;52.370;9.748;2023-08-12T01:37:04;7.67;;;4.30;;
8887;SDS011;4480;52.370;9.748;2023-08-12T01:39:34;7.30;;;5.00;;
8887;SDS011;4480;52.370;9.748;2023-08-12T01:42:03;7.57;;;4.60;;
8887;SDS011;4480;52.370;9.748;2023-08-12T01:44:31;7.37;;;4.93;;
8887;SDS011;4480;52.370;9.748;2023-08-12T01:46:59;6.33;;;4.30;;
8887;SDS011;4480;52.370;9.748;2023-08-12T01:49:26;8.33;;;4.50;;
8887;SDS011;4480;52.370;9.748;2023-08-12T01:51:53;6.27;;;4.33;;
8887;SDS011;4480;52.370;9.748;2023-08-12T01:54:19;8.07;;;4.23;;
8887;SDS011;4480;52.370;9.748;2023-08-12T01:56:47;6.97;;;4.40;;
8887;SDS011;4480;52.370;9.748;2023-08-12T01:59:14;9.90;;;4.70;;
8887;SDS011;4480;52.370;9.748;2023-08-12T02:01:41;8.20;;;4.70;;
8887;SDS011;4480;52.370;9.748;2023-08-12T02:04:07;4.20;;;3.87;;
8887;SDS011;4480;52.370;9.748;2023-08-12T02:06:34;10.93;;;4.53;;
8887;SDS011;4480;52.370;9.748;2023-08-12T02:09:01;7.40;;;4.67;;
8887;SDS011;4480;52.370;9.748;2023-08-12T02:11:28;10.10;;;4.60;;
8887;SDS011;4480;52.370;9.748;2023-08-12T02:13:56;6.50;;;4.53;;
8887;SDS011;4480;52.370;9.748;2023-08-12T02:16:22;5.20;;;4.70;;
8887;SDS011;4480;52.370;9.748;2023-08-12T02:18:49;8.17;;;4.97;;
8887;SDS011;4480;52.370;9.748;2023-08-12T02:21:16;8.70;;;4.63;;
8887;SDS011;4480;52.370;9.748;2023-08-12T02:23:43;6.80;;;4.33;;
8887;SDS011;4480;52.370;9.748;2023-08-12T02:26:10;6.10;;;4.10;;
8887;SDS011;4480;52.370;9.748;2023-08-12T02:28:36;7.27;;;4.60;;
8887;SDS011;4480;52.370;9.748;2023-08-12T02:31:05;5.47;;;4.27;;
8887;SDS011;4480;52.370;9.748;2023-08-12T02:33:31;8.20;;;4.17;;
8887;SDS011;4480;52.370;9.748;2023-08-12T02:35:58;8.13;;;4.50;;
8887;SDS011;4480;52.370;9.748;2023-08-12T02:38:25;6.63;;;4.70;;
8887;SDS011;4480;52.370;9.748;2023-08-12T02:40:52;8.50;;;4.70;;
8887;SDS011;4480;52.370;9.748;2023-08-12T02:43:19;6.00;;;4.50;;
8887;SDS011;4480;52.370;9.748;2023-08-12T02:45:45;9.13;;;4.97;;
8887;SDS011;4480;52.370;9.748;2023-08-12T02:48:13;8.20;;;5.07;;
8887;SDS011;4480;52.370;9.748;2023-08-12T02:50:40;5.60;;;4.30;;
8887;SDS011;4480;52.370;9.748;2023-08-12T02:53:07;5.23;;;4.20;;
8887;SDS011;4480;52.370;9.748;2023-08-12T02:55:34;8.37;;;4.20;;
8887;SDS011;4480;52.370;9.748;2023-08-12T02:58:02;4.70;;;4.30;;
8887;SDS011;4480;52.370;9.748;2023-08-12T03:00:30;5.63;;;4.33;;
8887;SDS011;4480;52.370;9.748;2023-08-12T03:02:56;4.83;;;4.40;;
8887;SDS011;4480;52.370;9.748;2023-08-12T03:05:24;8.43;;;4.60;;
8887;SDS011;4480;52.370;9.748;2023-08-12T03:07:51;5.87;;;3.90;;
8887;SDS011;4480;52.370;9.748;2023-08-12T03:10:18;6.63;;;4.47;;
8887;SDS011;4480;52.370;9.748;2023-08-12T03:12:45;5.97;;;4.50;;
8887;SDS011;4480;52.370;9.748;2023-08-12T03:15:12;6.43;;;4.50;;
8887;SDS011;4480;52.370;9.748;2023-08-12T03:17:38;5.00;;;4.50;;
8887;SDS011;4480;52.370;9.748;2023-08-12T03:20:07;8.60;;;4.10;;
8887;SDS011;4480;52.370;9.748;2023-08-12T03:22:35;7.03;;;4.67;;
8887;SDS011;4480;52.370;9.748;2023-08-12T03:25:03;5.77;;;4.30;;
8887;SDS011;4480;52.370;9.748;2023-08-12T03:27:30;6.07;;;4.57;;
8887;SDS011;4480;52.370;9.748;2023-08-12T03:29:57;5.23;;;4.33;;
8887;SDS011;4480;52.370;9.748;2023-08-12T03:32:24;6.53;;;4.60;;
8887;SDS011;4480;52.370;9.748;2023-08-12T03:34:51;5.37;;;4.83;;
8887;SDS011;4480;52.370;9.748;2023-08-12T03:37:18;7.47;;;5.17;;
8887;SDS011;4480;52.370;9.748;2023-08-12T03:39:46;6.73;;;6.00;;
8887;SDS011;4480;52.370;9.748;2023-08-12T03:42:13;5.63;;;5.13;;
8887;SDS011;4480;52.370;9.748;2023-08-12T03:44:41;6.57;;;5.97;;
8887;SDS011;4480;52.370;9.748;2023-08-12T03:47:08;7.50;;;6.40;;
8887;SDS011;4480;52.370;9.748;2023-08-12T03:49:35;6.83;;;6.13;;
8887;SDS011;4480;52.370;9.748;2023-08-12T03:52:02;9.57;;;6.83;;
8887;SDS011;4480;52.370;9.748;2023-08-12T03:54:29;7.87;;;6.43;;
8887;SDS011;4480;52.370;9.748;2023-08-12T03:56:57;7.63;;;6.43;;
8887;SDS011;4480;52.370;9.748;2023-08-12T03:59:24;10.03;;;8.47;;
8887;SDS011;4480;52.370;9.748;2023-08-12T04:01:51;9.87;;;8.57;;
8887;SDS011;4480;52.370;9.748;2023-08-12T04:04:17;8.93;;;7.20;;
8887;SDS011;4480;52.370;9.748;2023-08-12T04:06:44;8.17;;;7.00;;
8887;SDS011;4480;52.370;9.748;2023-08-12T04:12:01;12.40;;;8.27;;
8887;SDS011;4480;52.370;9.748;2023-08-12T04:14:28;8.63;;;7.73;;
8887;SDS011;4480;52.370;9.748;2023-08-12T04:16:55;9.77;;;8.77;;
8887;SDS011;4480;52.370;9.748;2023-08-12T04:19:21;9.83;;;8.87;;
8887;SDS011;4480;52.370;9.748;2023-08-12T04:21:48;10.77;;;9.60;;
8887;SDS011;4480;52.370;9.748;2023-08-12T04:24:15;13.13;;;10.17;;
8887;SDS011;4480;52.370;9.748;2023-08-12T04:26:42;13.23;;;9.77;;
8887;SDS011;4480;52.370;9.748;2023-08-12T04:29:10;10.60;;;9.47;;
8887;SDS011;4480;52.370;9.748;2023-08-12T04:31:37;12.27;;;11.07;;
8887;SDS011;4480;52.370;9.748;2023-08-12T04:34:04;12.23;;;10.57;;
8887;SDS011;4480;52.370;9.748;2023-08-12T04:36:30;13.40;;;11.20;;
8887;SDS011;4480;52.370;9.748;2023-08-12T04:38:57;21.07;;;13.00;;
8887;SDS011;4480;52.370;9.748;2023-08-12T04:41:24;17.23;;;13.23;;
8887;SDS011;4480;52.370;9.748;2023-08-12T04:43:51;14.10;;;12.60;;
8887;SDS011;4480;52.370;9.748;2023-08-12T04:46:19;15.63;;;13.20;;
8887;SDS011;4480;52.370;9.748;2023-08-12T04:48:45;16.57;;;14.90;;
8887;SDS011;4480;52.370;9.748;2023-08-12T04:51:12;17.80;;;16.00;;
8887;SDS011;4480;52.370;9.748;2023-08-12T04:53:39;16.00;;;14.40;;
8887;SDS011;4480;52.370;9.748;2023-08-12T04:56:06;18.20;;;15.90;;
8887;SDS011;4480;52.370;9.748;2023-08-12T04:58:33;17.67;;;15.77;;
8887;SDS011;4480;52.370;9.748;2023-08-12T05:01:00;16.03;;;14.43;;
8887;SDS011;4480;52.370;9.748;2023-08-12T05:03:29;16.27;;;14.50;;
8887;SDS011;4480;52.370;9.748;2023-08-12T05:05:56;17.83;;;15.93;;
8887;SDS011;4480;52.370;9.748;2023-08-12T05:08:22;19.10;;;15.50;;
8887;SDS011;4480;52.370;9.748;2023-08-12T05:10:50;17.80;;;14.33;;
8887;SDS011;4480;52.370;9.748;2023-08-12T05:13:17;16.90;;;15.20;;
8887;SDS011;4480;52.370;9.748;2023-08-12T05:15:44;21.47;;;16.13;;
8887;SDS011;4480;52.370;9.748;2023-08-12T05:18:12;17.57;;;15.70;;
8887;SDS011;4480;52.370;9.748;2023-08-12T05:20:40;19.77;;;16.37;;
8887;SDS011;4480;52.370;9.748;2023-08-12T05:23:07;22.03;;;16.27;;
8887;SDS011;4480;52.370;9.748;2023-08-12T05:25:35;16.30;;;14.70;;
8887;SDS011;4480;52.370;9.748;2023-08-12T05:28:02;21.73;;;15.30;;
8887;SDS011;4480;52.370;9.748;2023-08-12T05:30:29;16.77;;;14.97;;
8887;SDS011;4480;52.370;9.748;2023-08-12T05:32:56;17.97;;;16.17;;
8887;SDS011;4480;52.370;9.748;2023-08-12T05:35:22;16.60;;;14.90;;
8887;SDS011;4480;52.370;9.748;2023-08-12T05:37:50;14.90;;;13.40;;
8887;SDS011;4480;52.370;9.748;2023-08-12T05:40:17;16.80;;;14.60;;
8887;SDS011;4480;52.370;9.748;2023-08-12T05:42:44;15.70;;;13.73;;
8887;SDS011;4480;52.370;9.748;2023-08-12T05:45:11;14.30;;;13.00;;
8887;SDS011;4480;52.370;9.748;2023-08-12T05:47:38;15.37;;;12.60;;
8887;SDS011;4480;52.370;9.748;2023-08-12T05:50:05;20.00;;;14.27;;
8887;SDS011;4480;52.370;9.748;2023-08-12T05:52:32;22.43;;;13.67;;
8887;SDS011;4480;52.370;9.748;2023-08-12T05:55:00;15.70;;;13.23;;
8887;SDS011;4480;52.370;9.748;2023-08-12T05:57:27;16.07;;;13.83;;
8887;SDS011;4480;52.370;9.748;2023-08-12T05:59:54;15.07;;;13.33;;
8887;SDS011;4480;52.370;9.748;2023-08-12T06:02:21;19.17;;;14.93;;
8887;SDS011;4480;52.370;9.748;2023-08-12T06:04:48;16.07;;;13.20;;
8887;SDS011;4480;52.370;9.748;2023-08-12T06:07:15;15.80;;;14.30;;
8887;SDS011;4480;52.370;9.748;2023-08-12T06:09:43;15.50;;;13.90;;
8887;SDS011;4480;52.370;9.748;2023-08-12T06:12:11;15.00;;;13.10;;
8887;SDS011;4480;52.370;9.748;2023-08-12T06:14:38;16.50;;;14.00;;
8887;SDS011;4480;52.370;9.748;2023-08-12T06:17:06;14.70;;;13.17;;
8887;SDS011;4480;52.370;9.748;2023-08-12T06:19:33;16.23;;;13.93;;
8887;SDS011;4480;52.370;9.748;2023-08-12T06:22:00;15.53;;;12.93;;
8887;SDS011;4480;52.370;9.748;2023-08-12T06:24:26;14.30;;;12.80;;
8887;SDS011;4480;52.370;9.748;2023-08-12T06:26:53;14.27;;;12.77;;
8887;SDS011;4480;52.370;9.748;2023-08-12T06:29:21;16.30;;;13.43;;
8887;SDS011;4480;52.370;9.748;2023-08-12T06:31:48;13.80;;;12.30;;
8887;SDS011;4480;52.370;9.748;2023-08-12T06:34:15;13.90;;;12.50;;
8887;SDS011;4480;52.370;9.748;2023-08-12T06:36:42;13.73;;;12.10;;
8887;SDS011;4480;52.370;9.748;2023-08-12T06:39:08;16.93;;;13.43;;
8887;SDS011;4480;52.370;9.748;2023-08-12T06:41:35;17.57;;;12.70;;
8887;SDS011;4480;52.370;9.748;2023-08-12T06:44:02;17.57;;;11.90;;
8887;SDS011;4480;52.370;9.748;2023-08-12T06:46:31;12.97;;;11.37;;
8887;SDS011;4480;52.370;9.748;2023-08-12T06:48:57;18.07;;;12.17;;
8887;SDS011;4480;52.370;9.748;2023-08-12T06:51:25;15.10;;;11.97;;
8887;SDS011;4480;52.370;9.748;2023-08-12T06:53:51;12.53;;;10.93;;
8887;SDS011;4480;52.370;9.748;2023-08-12T06:56:18;13.73;;;11.90;;
8887;SDS011;4480;52.370;9.748;2023-08-12T06:58:45;11.13;;;10.00;;
8887;SDS011;4480;52.370;9.748;2023-08-12T07:01:12;11.43;;;10.23;;
8887;SDS011;4480;52.370;9.748;2023-08-12T07:03:40;12.97;;;10.37;;
8887;SDS011;4480;52.370;9.748;2023-08-12T07:06:07;11.53;;;10.30;;
8887;SDS011;4480;52.370;9.748;2023-08-12T07:08:34;11.60;;;9.73;;
8887;SDS011;4480;52.370;9.748;2023-08-12T07:11:01;10.83;;;9.40;;
8887;SDS011;4480;52.370;9.748;2023-08-12T07:13:27;15.77;;;12.10;;
8887;SDS011;4480;52.370;9.748;2023-08-12T07:15:54;10.93;;;9.83;;
8887;SDS011;4480;52.370;9.748;2023-08-12T07:18:21;14.80;;;11.50;;
8887;SDS011;4480;52.370;9.748;2023-08-12T07:20:50;11.13;;;9.50;;
8887;SDS011;4480;52.370;9.748;2023-08-12T07:23:16;11.07;;;9.60;;
8887;SDS011;4480;52.370;9.748;2023-08-12T07:25:45;11.70;;;8.87;;
8887;SDS011;4480;52.370;9.748;2023-08-12T07:28:12;9.23;;;8.33;;
8887;SDS011;4480;52.370;9.748;2023-08-12T07:30:39;10.43;;;9.40;;
8887;SDS011;4480;52.370;9.748;2023-08-12T07:33:06;14.80;;;9.63;;
8887;SDS011;4480;52.370;9.748;2023-08-12T07:35:33;8.80;;;7.90;;
8887;SDS011;4480;52.370;9.748;2023-08-12T07:38:02;11.23;;;8.97;;
8887;SDS011;4480;52.370;9.748;2023-08-12T07:40:29;9.43;;;7.83;;
8887;SDS011;4480;52.370;9.748;2023-08-12T07:42:55;12.50;;;8.90;;
8887;SDS011;4480;52.370;9.748;2023-08-12T07:45:22;10.73;;;8.40;;
8887;SDS011;4480;52.370;9.748;2023-08-12T07:47:49;8.37;;;7.50;;
8887;SDS011;4480;52.370;9.748;2023-08-12T07:50:17;11.00;;;9.17;;
8887;SDS011;4480;52.370;9.748;2023-08-12T07:52:44;8.93;;;8.07;;
8887;SDS011;4480;52.370;9.748;2023-08-12T07:55:12;8.80;;;7.73;;
8887;SDS011;4480;52.370;9.748;2023-08-12T07:57:39;11.47;;;9.40;;
8887;SDS011;4480;52.370;9.748;2023-08-12T08:00:06;9.87;;;8.03;;
8887;SDS011;4480;52.370;9.748;2023-08-12T08:02:35;10.10;;;7.53;;
8887;SDS011;4480;52.370;9.748;2023-08-12T08:05:02;8.77;;;7.80;;
8887;SDS011;4480;52.370;9.748;2023-08-12T08:07:29;8.03;;;7.00;;
8887;SDS011;4480;52.370;9.748;2023-08-12T08:09:57;10.47;;;7.47;;
8887;SDS011;4480;52.370;9.748;2023-08-12T08:12:25;8.00;;;7.20;;
8887;SDS011;4480;52.370;9.748;2023-08-12T08:14:52;10.07;;;7.80;;
8887;SDS011;4480;52.370;9.748;2023-08-12T08:17:19;12.00;;;8.13;;
8887;SDS011;4480;52.370;9.748;2023-08-12T08:19:45;9.27;;;7.00;;
8887;SDS011;4480;52.370;9.748;2023-08-12T08:22:12;12.00;;;7.70;;
8887;SDS011;4480;52.370;9.748;2023-08-12T08:24:39;9.43;;;7.70;;
8887;SDS011;4480;52.370;9.748;2023-08-12T08:27:06;7.53;;;6.80;;
8887;SDS011;4480;52.370;9.748;2023-08-12T08:29:34;10.03;;;7.13;;
8887;SDS011;4480;52.370;9.748;2023-08-12T08:32:01;8.37;;;6.83;;
8887;SDS011;4480;52.370;9.748;2023-08-12T08:34:28;9.30;;;7.03;;
8887;SDS011;4480;52.370;9.748;2023-08-12T08:36:54;12.17;;;8.20;;
8887;SDS011;4480;52.370;9.748;2023-08-12T08:39:21;8.30;;;7.17;;
8887;SDS011;4480;52.370;9.748;2023-08-12T08:41:48;9.90;;;6.47;;
8887;SDS011;4480;52.370;9.748;2023-08-12T08:44:15;9.73;;;7.20;;
8887;SDS011;4480;52.370;9.748;2023-08-12T08:46:45;9.17;;;6.60;;
8887;SDS011;4480;52.370;9.748;2023-08-12T08:49:12;7.80;;;6.83;;
8887;SDS011;4480;52.370;9.748;2023-08-12T08:51:41;8.17;;;6.90;;
8887;SDS011;4480;52.370;9.748;2023-08-12T08:54:09;7.20;;;6.50;;
8887;SDS011;4480;52.370;9.748;2023-08-12T08:56:38;9.17;;;7.00;;
8887;SDS011;4480;52.370;9.748;2023-08-12T08:59:05;7.53;;;6.47;;
8887;SDS011;4480;52.370;9.748;2023-08-12T09:01:31;8.13;;;6.93;;
8887;SDS011;4480;52.370;9.748;2023-08-12T09:04:00;7.30;;;6.60;;
8887;SDS011;4480;52.370;9.748;2023-08-12T09:06:29;10.13;;;6.70;;
8887;SDS011;4480;52.370;9.748;2023-08-12T09:08:58;6.90;;;6.20;;
8887;SDS011;4480;52.370;9.748;2023-08-12T09:11:27;8.53;;;7.10;;
8887;SDS011;4480;52.370;9.748;2023-08-12T09:13:54;9.33;;;6.90;;
8887;SDS011;4480;52.370;9.748;2023-08-12T09:16:21;6.13;;;5.53;;
8887;SDS011;4480;52.370;9.748;2023-08-12T09:18:49;7.10;;;5.90;;
8887;SDS011;4480;52.370;9.748;2023-08-12T09:21:22;7.63;;;7.00;;
8887;SDS011;4480;52.370;9.748;2023-08-12T09:23:49;8.03;;;6.30;;
8887;SDS011;4480;52.370;9.748;2023-08-12T09:26:17;7.40;;;6.70;;
8887;SDS011;4480;52.370;9.748;2023-08-12T09:28:45;8.30;;;6.27;;
8887;SDS011;4480;52.370;9.748;2023-08-12T09:31:21;7.50;;;6.50;;
8887;SDS011;4480;52.370;9.748;2023-08-12T09:33:50;8.30;;;6.57;;
8887;SDS011;4480;52.370;9.748;2023-08-12T09:36:17;6.47;;;5.97;;
8887;SDS011;4480;52.370;9.748;2023-08-12T09:38:45;10.83;;;6.93;;
8887;SDS011;4480;52.370;9.748;2023-08-12T09:41:13;7.17;;;5.70;;
8887;SDS011;4480;52.370;9.748;2023-08-12T09:43:40;8.30;;;6.80;;
8887;SDS011;4480;52.370;9.748;2023-08-12T09:46:10;7.20;;;6.10;;
8887;SDS011;4480;52.370;9.748;2023-08-12T09:48:38;6.70;;;6.00;;
8887;SDS011;4480;52.370;9.748;2023-08-12T09:51:05;9.20;;;5.30;;
8887;SDS011;4480;52.370;9.748;2023-08-12T09:53:32;6.23;;;5.70;;
8887;SDS011;4480;52.370;9.748;2023-08-12T09:56:02;7.13;;;5.80;;
8887;SDS011;4480;52.370;9.748;2023-08-12T09:58:32;6.97;;;6.27;;
8887;SDS011;4480;52.370;9.748;2023-08-12T10:01:02;6.87;;;5.67;;
8887;SDS011;4480;52.370;9.748;2023-08-12T10:03:29;8.83;;;6.13;;
8887;SDS011;4480;52.370;9.748;2023-08-12T10:05:57;6.93;;;5.57;;
8887;SDS011;4480;52.370;9.748;2023-08-12T10:08:25;6.23;;;5.73;;
8887;SDS011;4480;52.370;9.748;2023-08-12T10:10:53;6.37;;;5.77;;
8887;SDS011;4480;52.370;9.748;2023-08-12T10:13:21;6.83;;;6.13;;
8887;SDS011;4480;52.370;9.748;2023-08-12T10:15:48;8.73;;;5.80;;
8887;SDS011;4480;52.370;9.748;2023-08-12T10:18:16;7.97;;;7.13;;
8887;SDS011;4480;52.370;9.748;2023-08-12T10:20:45;6.93;;;6.20;;
8887;SDS011;4480;52.370;9.748;2023-08-12T10:23:13;7.97;;;6.63;;
8887;SDS011;4480;52.370;9.748;2023-08-12T10:25:43;6.90;;;6.30;;
8887;SDS011;4480;52.370;9.748;2023-08-12T10:28:11;8.10;;;6.80;;
8887;SDS011;4480;52.370;9.748;2023-08-12T10:30:40;9.60;;;6.63;;
8887;SDS011;4480;52.370;9.748;2023-08-12T10:33:08;9.80;;;6.13;;
8887;SDS011;4480;52.370;9.748;2023-08-12T10:35:41;7.93;;;6.37;;
8887;SDS011;4480;52.370;9.748;2023-08-12T10:38:10;7.80;;;6.50;;
8887;SDS011;4480;52.370;9.748;2023-08-12T10:40:37;6.43;;;5.27;;
8887;SDS011;4480;52.370;9.748;2023-08-12T10:43:04;8.03;;;5.90;;
8887;SDS011;4480;52.370;9.748;2023-08-12T10:45:42;8.47;;;5.50;;
8887;SDS011;4480;52.370;9.748;2023-08-12T10:48:15;9.30;;;6.73;;
8887;SDS011;4480;52.370;9.748;2023-08-12T10:50:44;6.97;;;6.27;;
8887;SDS011;4480;52.370;9.748;2023-08-12T10:53:22;6.90;;;6.10;;
8887;SDS011;4480;52.370;9.748;2023-08-12T10:55:54;6.20;;;5.70;;
8887;SDS011;4480;52.370;9.748;2023-08-12T10:58:26;6.57;;;5.97;;
8887;SDS011;4480;52.370;9.748;2023-08-12T11:00:55;6.07;;;5.50;;
8887;SDS011;4480;52.370;9.748;2023-08-12T11:03:23;5.60;;;5.10;;
8887;SDS011;4480;52.370;9.748;2023-08-12T11:05:50;6.57;;;5.00;;
8887;SDS011;4480;52.370;9.748;2023-08-12T11:08:23;5.83;;;5.07;;
8887;SDS011;4480;52.370;9.748;2023-08-12T11:10:52;4.73;;;4.23;;
8887;SDS011;4480;52.370;9.748;2023-08-12T11:13:21;6.20;;;4.83;;
8887;SDS011;4480;52.370;9.748;2023-08-12T11:15:48;4.60;;;3.80;;
8887;SDS011;4480;52.370;9.748;2023-08-12T11:18:16;5.37;;;4.70;;
8887;SDS011;4480;52.370;9.748;2023-08-12T11:20:45;5.23;;;4.70;;
8887;SDS011;4480;52.370;9.748;2023-08-12T11:23:14;4.30;;;3.90;;
8887;SDS011;4480;52.370;9.748;2023-08-12T11:25:41;4.33;;;3.93;;
8887;SDS011;4480;52.370;9.748;2023-08-12T11:28:10;5.80;;;4.80;;
8887;SDS011;4480;52.370;9.748;2023-08-12T11:30:39;4.60;;;4.20;;
8887;SDS011;4480;52.370;9.748;2023-08-12T11:33:07;4.13;;;3.83;;
8887;SDS011;4480;52.370;9.748;2023-08-12T11:35:35;4.60;;;4.30;;
8887;SDS011;4480;52.370;9.748;2023-08-12T11:38:03;5.03;;;4.40;;
8887;SDS011;4480;52.370;9.748;2023-08-12T11:40:32;4.53;;;3.90;;
8887;SDS011;4480;52.370;9.748;2023-08-12T11:42:58;3.73;;;3.43;;
8887;SDS011;4480;52.370;9.748;2023-08-12T11:45:26;4.80;;;3.73;;
8887;SDS011;4480;52.370;9.748;2023-08-12T11:47:53;4.43;;;4.03;;
8887;SDS011;4480;52.370;9.748;2023-08-12T11:50:21;4.03;;;3.63;;
8887;SDS011;4480;52.370;9.748;2023-08-12T11:52:50;3.80;;;3.50;;
8887;SDS011;4480;52.370;9.748;2023-08-12T11:55:18;5.03;;;4.13;;
8887;SDS011;4480;52.370;9.748;2023-08-12T11:57:45;5.10;;;4.20;;
8887;SDS011;4480;52.370;9.748;2023-08-12T12:00:12;5.50;;;3.83;;
8887;SDS011;4480;52.370;9.748;2023-08-12T12:02:41;4.23;;;3.90;;
8887;SDS011;4480;52.370;9.748;2023-08-12T12:05:11;4.53;;;3.97;;
8887;SDS011;4480;52.370;9.748;2023-08-12T12:07:39;3.90;;;3.60;;
8887;SDS011;4480;52.370;9.748;2023-08-12T12:10:07;4.10;;;3.77;;
8887;SDS011;4480;52.370;9.748;2023-08-12T12:12:38;4.43;;;3.77;;
8887;SDS011;4480;52.370;9.748;2023-08-12T12:15:05;4.43;;;4.03;;
8887;SDS011;4480;52.370;9.748;2023-08-12T12:17:33;3.10;;;2.90;;
8887;SDS011;4480;52.370;9.748;2023-08-12T12:20:06;4.90;;;3.60;;
8887;SDS011;4480;52.370;9.748;2023-08-12T12:22:35;4.00;;;3.63;;
8887;SDS011;4480;52.370;9.748;2023-08-12T12:25:06;3.87;;;3.57;;
8887;SDS011;4480;52.370;9.748;2023-08-12T12:27:36;4.97;;;3.10;;
8887;SDS011;4480;52.370;9.748;2023-08-12T12:30:04;4.17;;;3.80;;
8887;SDS011;4480;52.370;9.748;2023-08-12T12:32:31;3.73;;;2.80;;
8887;SDS011;4480;52.370;9.748;2023-08-12T12:34:58;3.43;;;3.13;;
8887;SDS011;4480;52.370;9.748;2023-08-12T12:37:25;3.20;;;3.00;;
8887;SDS011;4480;52.370;9.748;2023-08-12T12:39:52;3.80;;;3.23;;
8887;SDS011;4480;52.370;9.748;2023-08-12T12:42:20;6.07;;;3.60;;
8887;SDS011;4480;52.370;9.748;2023-08-12T12:44:47;6.23;;;3.20;;
8887;SDS011;4480;52.370;9.748;2023-08-12T12:47:13;3.00;;;2.80;;
8887;SDS011;4480;52.370;9.748;2023-08-12T12:49:40;3.33;;;3.03;;
8887;SDS011;4480;52.370;9.748;2023-08-12T12:52:08;4.53;;;3.57;;
8887;SDS011;4480;52.370;9.748;2023-08-12T12:54:34;3.80;;;3.10;;
8887;SDS011;4480;52.370;9.748;2023-08-12T12:57:01;3.90;;;3.60;;
8887;SDS011;4480;52.370;9.748;2023-08-12T12:59:30;3.70;;;3.40;;
8887;SDS011;4480;52.370;9.748;2023-08-12T13:01:56;3.73;;;3.20;;
8887;SDS011;4480;52.370;9.748;2023-08-12T13:04:23;3.13;;;2.87;;
8887;SDS011;4480;52.370;9.748;2023-08-12T13:06:50;3.03;;;2.83;;
8887;SDS011;4480;52.370;9.748;2023-08-12T13:09:17;2.97;;;2.67;;
8887;SDS011;4480;52.370;9.748;2023-08-12T13:11:44;3.00;;;2.80;;
8887;SDS011;4480;52.370;9.748;2023-08-12T13:14:10;2.87;;;2.67;;
8887;SDS011;4480;52.370;9.748;2023-08-12T13:16:39;2.80;;;2.60;;
8887;SDS011;4480;52.370;9.748;2023-08-12T13:19:05;2.90;;;2.70;;
8887;SDS011;4480;52.370;9.748;2023-08-12T13:21:32;4.40;;;3.03;;
8887;SDS011;4480;52.370;9.748;2023-08-12T13:23:59;3.37;;;2.87;;
8887;SDS011;4480;52.370;9.748;2023-08-12T13:26:26;3.20;;;2.60;;
8887;SDS011;4480;52.370;9.748;2023-08-12T13:28:53;3.07;;;2.77;;
8887;SDS011;4480;52.370;9.748;2023-08-12T13:31:20;2.40;;;2.20;;
8887;SDS011;4480;52.370;9.748;2023-08-12T13:33:48;2.87;;;2.67;;
8887;SDS011;4480;52.370;9.748;2023-08-12T13:36:16;2.43;;;2.23;;
8887;SDS011;4480;52.370;9.748;2023-08-12T13:38:42;3.60;;;2.33;;
8887;SDS011;4480;52.370;9.748;2023-08-12T13:41:09;3.50;;;2.70;;
8887;SDS011;4480;52.370;9.748;2023-08-12T13:43:36;2.40;;;2.20;;
8887;SDS011;4480;52.370;9.748;2023-08-12T13:46:02;2.03;;;1.83;;
8887;SDS011;4480;52.370;9.748;2023-08-12T13:48:29;3.73;;;1.70;;
8887;SDS011;4480;52.370;9.748;2023-08-12T13:50:57;1.70;;;1.60;;
8887;SDS011;4480;52.370;9.748;2023-08-12T13:53:24;1.60;;;1.40;;
8887;SDS011;4480;52.370;9.748;2023-08-12T13:55:51;1.90;;;1.70;;
8887;SDS011;4480;52.370;9.748;2023-08-12T13:58:18;1.50;;;1.40;;
8887;SDS011;4480;52.370;9.748;2023-08-12T14:00:44;2.00;;;1.53;;
8887;SDS011;4480;52.370;9.748;2023-08-12T14:03:11;1.73;;;1.60;;
8887;SDS011;4480;52.370;9.748;2023-08-12T14:05:38;1.70;;;1.50;;
8887;SDS011;4480;52.370;9.748;2023-08-12T14:08:06;2.67;;;2.00;;
8887;SDS011;4480;52.370;9.748;2023-08-12T14:10:33;2.50;;;1.97;;
8887;SDS011;4480;52.370;9.748;2023-08-12T14:13:00;1.40;;;1.30;;
8887;SDS011;4480;52.370;9.748;2023-08-12T14:15:26;1.70;;;1.60;;
8887;SDS011;4480;52.370;9.748;2023-08-12T14:17:53;3.30;;;3.00;;
8887;SDS011;4480;52.370;9.748;2023-08-12T14:20:20;1.90;;;1.70;;
8887;SDS011;4480;52.370;9.748;2023-08-12T14:22:47;4.03;;;3.10;;
8887;SDS011;4480;52.370;9.748;2023-08-12T14:25:15;3.20;;;2.60;;
8887;SDS011;4480;52.370;9.748;2023-08-12T14:27:42;2.33;;;2.13;;
8887;SDS011;4480;52.370;9.748;2023-08-12T14:30:09;2.30;;;2.10;;
8887;SDS011;4480;52.370;9.748;2023-08-12T14:32:37;1.63;;;1.37;;
8887;SDS011;4480;52.370;9.748;2023-08-12T14:35:04;1.53;;;1.10;;
8887;SDS011;4480;52.370;9.748;2023-08-12T14:37:31;1.77;;;1.10;;
8887;SDS011;4480;52.370;9.748;2023-08-12T14:39:58;1.73;;;1.00;;
8887;SDS011;4480;52.370;9.748;2023-08-12T14:42:26;1.40;;;1.30;;
8887;SDS011;4480;52.370;9.748;2023-08-12T14:44:53;1.40;;;1.30;;
8887;SDS011;4480;52.370;9.748;2023-08-12T14:47:19;1.40;;;1.10;;
8887;SDS011;4480;52.370;9.748;2023-08-12T14:49:46;1.53;;;0.90;;
8887;SDS011;4480;52.370;9.748;2023-08-12T14:52:15;2.50;;;1.30;;
8887;SDS011;4480;52.370;9.748;2023-08-12T14:54:43;1.60;;;1.30;;
8887;SDS011;4480;52.370;9.748;2023-08-12T14:57:10;3.37;;;1.40;;
8887;SDS011;4480;52.370;9.748;2023-08-12T14:59:38;1.93;;;1.60;;
8887;SDS011;4480;52.370;9.748;2023-08-12T15:02:05;2.80;;;1.30;;
8887;SDS011;4480;52.370;9.748;2023-08-12T15:04:32;2.13;;;1.10;;
8887;SDS011;4480;52.370;9.748;2023-08-12T15:06:59;2.90;;;1.50;;
8887;SDS011;4480;52.370;9.748;2023-08-12T15:09:26;2.10;;;1.80;;
8887;SDS011;4480;52.370;9.748;2023-08-12T15:11:52;2.50;;;1.70;;
8887;SDS011;4480;52.370;9.748;2023-08-12T15:14:19;2.57;;;1.63;;